Ginys del Meteocat

Dades de l'estació automàtica Mollerussa

?
?
Resum diari 22:30 TU
Dades diàries de l'estació meteorològica
Temperatura mitjana 6.5 °C
Temperatura màxima 12.5 °C 14:18 TU
Temperatura mínima 1.2 °C 5:35 TU
Humitat relativa mitjana 92%
Precipitació acumulada 0.0 mm
Ratxa màxima del vent (2 m) 9.4 km/h - 284º 12:56 TU
Pressió atmosfèrica mitjana 1022.9 hPa
Irradiació solar global 9.0 MJ/m2

El tram horari està expressat en Temps Universal (TU). Cal sumar una hora en horari d'hivern i dues en horari d'estiu per passar a l'hora oficial.

Mollerussa

Metadades estació meteorol´gica
Municipi Mollerussa
Comarca Pla d'Urgell
Altitud 247 m
Data alta 20.01.2010
Estat actual Operativa
Dades de període
Període
TU
TM
°C
TX
°C
TN
°C
HRM
%
PPT
mm
VVM (2 m)
km/h
DVM (2 m)
graus
VVX (2 m)
km/h
PM
hPa
RS
W/m2
00:00 - 00:30 6.2 6.6 5.9 97 0.0 1.1 110 9.0 1024.4 0
00:30 - 01:00 6.9 7.1 6.5 93 0.0 2.5 123 7.9 1024.1 0
01:00 - 01:30 6.5 6.5 6.4 95 0.0 2.5 136 5.0 1023.8 0
01:30 - 02:00 6.6 6.7 6.5 94 0.0 1.8 123 5.0 1023.7 0
02:00 - 02:30 6.2 6.5 5.9 97 0.0 1.4 139 3.2 1023.6 0
02:30 - 03:00 5.7 6.1 5.1 97 0.0 2.2 163 4.3 1023.3 0
03:00 - 03:30 4.3 5.2 3.5 99 0.0 0.7 180 3.6 1023.3 0
03:30 - 04:00 3.3 3.5 3.0 100 0.0 0.7 277 3.2 1023.2 0
04:00 - 04:30 3.3 3.9 2.8 100 0.0 0.7 232 2.9 1023.4 0
04:30 - 05:00 2.2 2.8 1.9 100 0.0 1.4 195 4.0 1023.5 0
05:00 - 05:30 1.9 2.4 1.4 100 0.0 0.7 188 2.2 1023.6 0
05:30 - 06:00 1.6 2.1 1.2 100 0.0 1.4 151 3.6 1023.6 0
06:00 - 06:30 2.3 2.5 2.0 100 0.0 2.2 163 4.0 1023.6 0
06:30 - 07:00 2.7 3.1 2.4 100 0.0 1.8 127 4.3 1023.7 0
07:00 - 07:30 2.6 2.8 2.2 100 0.0 2.2 186 5.4 1023.9 3
07:30 - 08:00 2.9 3.1 2.8 100 0.0 2.5 126 5.0 1023.8 25
08:00 - 08:30 3.1 3.3 2.9 100 0.0 2.2 121 4.3 1023.9 64
08:30 - 09:00 4.0 5.2 3.3 100 0.0 1.8 128 5.8 1023.9 171
09:00 - 09:30 4.9 5.4 4.6 100 0.0 1.4 0 4.0 1023.9 214
09:30 - 10:00 5.8 6.5 5.3 100 0.0 1.8 284 5.4 1024.0 316
10:00 - 10:30 7.9 9.0 6.6 93 0.0 0.4 301 3.2 1023.9 372
10:30 - 11:00 9.2 9.6 8.7 82 0.0 1.8 344 4.7 1023.6 413
11:00 - 11:30 9.8 10.3 9.6 79 0.0 2.9 351 6.8 1023.4 436
11:30 - 12:00 9.9 10.2 9.7 82 0.0 4.3 299 8.6 1023.1 439
12:00 - 12:30 10.2 10.4 10.0 81 0.0 4.3 323 8.3 1022.5 494
12:30 - 13:00 10.8 11.2 10.4 78 0.0 4.0 323 9.4 1022.0 451
13:00 - 13:30 11.3 11.6 11.1 73 0.0 3.2 307 6.5 1021.7 379
13:30 - 14:00 11.8 12.2 11.5 68 0.0 3.6 304 8.3 1021.2 422
14:00 - 14:30 12.2 12.5 12.0 66 0.0 2.9 283 6.8 1021.1 360
14:30 - 15:00 12.0 12.3 11.8 68 0.0 3.6 294 8.6 1021.0 211
15:00 - 15:30 11.4 11.8 11.3 74 0.0 2.9 280 6.5 1021.0 115
15:30 - 16:00 11.3 11.5 10.9 73 0.0 3.2 250 6.1 1021.0 106
16:00 - 16:30 10.7 10.9 10.4 81 0.0 2.2 245 5.0 1021.0 60
16:30 - 17:00 9.7 10.3 8.9 86 0.0 0.7 256 2.5 1021.0 14
17:00 - 17:30 8.4 9.0 7.5 91 0.0 1.1 244 5.0 1021.4 0
17:30 - 18:00 7.1 7.5 6.4 96 0.0 0.7 245 2.2 1021.6 0
18:00 - 18:30 5.9 6.3 5.2 98 0.0 0.7 191 2.9 1021.8 0
18:30 - 19:00 5.0 5.2 4.8 99 0.0 1.4 190 3.2 1022.3 0
19:00 - 19:30 5.1 5.5 4.8 100 0.0 1.8 194 4.0 1022.6 0
19:30 - 20:00 4.5 5.3 4.1 100 0.0 1.1 149 2.9 1022.8 0
20:00 - 20:30 4.4 5.3 4.1 100 0.0 1.1 160 4.7 1023.1 0
20:30 - 21:00 5.7 6.0 5.4 100 0.0 2.5 123 6.1 1023.0 0
21:00 - 21:30 5.8 5.9 5.7 100 0.0 1.1 200 3.6 1023.0 0
21:30 - 22:00 6.0 6.1 5.8 100 0.0 0.7 183 2.5 1023.1 0
22:00 - 22:30 6.1 6.3 6.0 100 0.0 0.7 108 3.6 1023.0 0
22:30 - 23:00 6.1 6.2 5.9 99 0.0 0.7 184 2.9 1022.8 0

Les dades en taronja només han passat un control de qualitat automàtic. Resta pendent la seva validació definitiva.